createdAt,value
2023-04-28T00:01:44.755Z,100
2023-04-28T00:04:20.476Z,100
2023-04-28T00:06:41.159Z,100
2023-04-28T00:09:21.522Z,100
2023-04-28T00:11:44.868Z,100
2023-04-28T00:14:15.927Z,100
2023-04-28T00:16:53.279Z,100
2023-04-28T00:19:12.973Z,100
2023-04-28T00:22:18.823Z,100
2023-04-28T00:24:56.232Z,100
2023-04-28T00:27:26.490Z,100
2023-04-28T00:29:59.188Z,100
2023-04-28T00:32:27.469Z,100
2023-04-28T00:34:57.209Z,100
2023-04-28T00:37:26.707Z,100
2023-04-28T00:39:56.416Z,100
2023-04-28T00:42:30.283Z,100
2023-04-28T00:44:51.631Z,100
2023-04-28T00:47:27.733Z,100
2023-04-28T00:49:59.568Z,100
2023-04-28T00:52:51.212Z,100
2023-04-28T00:55:37.484Z,100
2023-04-28T00:58:12.446Z,100
2023-04-28T01:00:45.564Z,100
2023-04-28T01:03:27.854Z,100
2023-04-28T01:06:12.100Z,100
2023-04-28T01:09:11.685Z,100
2023-04-28T01:11:53.768Z,100
2023-04-28T01:14:35.028Z,100
2023-04-28T01:17:00.454Z,100
2023-04-28T01:22:34.517Z,100
2023-04-28T01:24:56.404Z,100
2023-04-28T01:27:34.869Z,100
2023-04-28T01:30:04.889Z,100
2023-04-28T01:32:50.412Z,100
2023-04-28T01:35:08.127Z,100
2023-04-28T01:37:30.576Z,100
2023-04-28T01:39:57.303Z,100
2023-04-28T01:42:25.906Z,100
2023-04-28T01:44:39.745Z,100
2023-04-28T01:47:11.785Z,100
2023-04-28T01:49:34.692Z,100
2023-04-28T01:51:51.885Z,100
2023-04-28T01:54:15.690Z,100
2023-04-28T01:56:42.574Z,100
2023-04-28T01:59:27.043Z,100
2023-04-28T02:01:50.731Z,100
2023-04-28T02:04:10.362Z,100
2023-04-28T02:06:40.386Z,100
2023-04-28T02:09:05.648Z,100
2023-04-28T02:11:37.359Z,100
2023-04-28T02:14:21.214Z,100
2023-04-28T02:16:53.287Z,100
2023-04-28T02:19:27.083Z,100
2023-04-28T02:21:57.744Z,100
2023-04-28T02:27:09.904Z,100
2023-04-28T02:29:52.085Z,100
2023-04-28T02:32:37.884Z,100
2023-04-28T02:35:19.703Z,100
2023-04-28T02:37:43.221Z,100
2023-04-28T02:40:09.249Z,100
2023-04-28T02:42:47.523Z,100
2023-04-28T02:45:35.900Z,100
2023-04-28T02:48:33.627Z,100
2023-04-28T02:51:16.954Z,100
2023-04-28T02:54:12.688Z,100
2023-04-28T02:57:12.176Z,100
2023-04-28T03:06:04.923Z,100
2023-04-28T03:08:36.752Z,100
2023-04-28T03:11:23.750Z,100
2023-04-28T03:14:10.189Z,100
2023-04-28T03:16:55.432Z,100
2023-04-28T03:19:36.377Z,100
2023-04-28T03:25:19.010Z,100
2023-04-28T03:27:44.559Z,100
2023-04-28T03:30:47.928Z,100
2023-04-28T03:33:23.547Z,100
2023-04-28T03:36:10.310Z,100
2023-04-28T03:38:54.028Z,100
2023-04-28T03:41:25.947Z,100
2023-04-28T03:44:30.186Z,100
2023-04-28T03:47:18.648Z,100
2023-04-28T03:49:55.285Z,100
2023-04-28T03:52:56.338Z,100
2023-04-28T03:59:09.422Z,100
2023-04-28T04:02:01.799Z,100
2023-04-28T04:04:43.769Z,100
2023-04-28T04:07:18.098Z,100
2023-04-28T04:10:04.315Z,100
2023-04-28T04:12:54.206Z,100
2023-04-28T04:18:23.360Z,100
2023-04-28T04:21:08.840Z,100
2023-04-28T04:27:09.784Z,100
2023-04-28T04:30:19.620Z,100
2023-04-28T04:36:10.474Z,100
2023-04-28T04:38:59.228Z,100
2023-04-28T04:41:44.678Z,100
2023-04-28T04:44:36.717Z,100
2023-04-28T04:47:36.488Z,100
2023-04-28T04:50:16.741Z,100
2023-04-28T04:52:54.682Z,100
2023-04-28T04:55:34.378Z,100
2023-04-28T04:58:07.404Z,100
2023-04-28T05:00:44.894Z,100
2023-04-28T05:03:02.872Z,100
2023-04-28T05:05:46.612Z,100
2023-04-28T05:08:20.180Z,100
2023-04-28T05:10:42.588Z,100
2023-04-28T05:13:05.086Z,100
2023-04-28T05:15:27.941Z,100
2023-04-28T05:17:46.136Z,100
2023-04-28T05:20:11.651Z,100
2023-04-28T05:22:31.548Z,100
2023-04-28T05:24:59.682Z,100
2023-04-28T05:27:21.882Z,100
2023-04-28T05:29:47.844Z,100
2023-04-28T05:32:10.213Z,100
2023-04-28T05:34:29.560Z,100
2023-04-28T05:36:48.565Z,100
2023-04-28T05:39:04.582Z,100
2023-04-28T05:41:18.823Z,100
2023-04-28T05:43:33.542Z,100
2023-04-28T05:45:58.089Z,100
2023-04-28T05:48:17.824Z,100
2023-04-28T05:50:41.279Z,100
2023-04-28T05:52:51.660Z,100
2023-04-28T05:55:05.184Z,100
2023-04-28T05:57:17.618Z,100
2023-04-28T05:59:33.482Z,100
2023-04-28T06:01:53.058Z,100
2023-04-28T06:04:30.042Z,100
2023-04-28T06:06:52.903Z,100
2023-04-28T06:09:08.420Z,100
2023-04-28T06:11:30.105Z,100
2023-04-28T06:13:52.159Z,100
2023-04-28T06:16:12.508Z,100
2023-04-28T06:18:31.945Z,100
2023-04-28T06:20:46.924Z,100
2023-04-28T06:23:09.582Z,100
2023-04-28T06:25:37.042Z,100
2023-04-28T06:28:01.942Z,100
2023-04-28T06:30:21.309Z,100
2023-04-28T06:32:57.170Z,100
2023-04-28T06:35:17.061Z,100
2023-04-28T06:37:26.999Z,100
2023-04-28T06:39:37.659Z,100
2023-04-28T06:41:48.646Z,100
2023-04-28T06:44:07.829Z,100
2023-04-28T06:46:21.372Z,100
2023-04-28T06:48:32.293Z,100
2023-04-28T06:50:58.281Z,100
2023-04-28T06:53:34.551Z,100
2023-04-28T06:55:45.668Z,100
2023-04-28T06:58:08.165Z,100
2023-04-28T07:00:19.666Z,100
2023-04-28T07:02:30.217Z,100
2023-04-28T07:04:41.377Z,100
2023-04-28T07:06:52.838Z,100
2023-04-28T07:09:04.898Z,100
2023-04-28T07:11:16.102Z,100
2023-04-28T07:13:31.028Z,100
2023-04-28T07:15:43.559Z,100
2023-04-28T07:18:00.875Z,100
2023-04-28T07:20:19.702Z,100
2023-04-28T07:22:30.765Z,100
2023-04-28T07:24:46.023Z,97.92
2023-04-28T07:26:57.580Z,96.42
2023-04-28T07:29:12.787Z,100
2023-04-28T07:31:25.000Z,92.93
2023-04-28T07:33:40.865Z,93.1
2023-04-28T07:35:55.404Z,88.89
2023-04-28T07:38:08.428Z,87.62
2023-04-28T07:40:25.106Z,88
2023-04-28T07:42:47.855Z,89.51
2023-04-28T07:45:09.001Z,90.68
2023-04-28T07:47:19.242Z,88.31
2023-04-28T07:49:34.021Z,86.12
2023-04-28T07:51:45.745Z,84.03
2023-04-28T07:54:00.804Z,84.68
2023-04-28T07:56:14.890Z,82.17
2023-04-28T07:58:25.115Z,91.73
2023-04-28T08:00:35.158Z,88.45
2023-04-28T08:02:54.411Z,88.09
2023-04-28T08:05:05.853Z,89.73
2023-04-28T08:07:17.520Z,86.32
2023-04-28T08:09:26.761Z,86.98
2023-04-28T08:11:37.380Z,94.13
2023-04-28T08:13:48.439Z,85.59
2023-04-28T08:16:00.181Z,84.15
2023-04-28T08:18:10.775Z,86.49
2023-04-28T08:20:22.312Z,85.25
2023-04-28T08:22:36.823Z,84.23
2023-04-28T08:24:49.304Z,89.87
2023-04-28T08:27:02.747Z,84.28
2023-04-28T08:29:15.725Z,86.17
2023-04-28T08:31:26.761Z,90.25
2023-04-28T08:33:38.765Z,84.84
2023-04-28T08:35:50.265Z,79.24
2023-04-28T08:38:00.243Z,71.97
2023-04-28T08:40:12.575Z,68.77
2023-04-28T08:42:25.742Z,67.68
2023-04-28T08:44:37.322Z,66.28
2023-04-28T08:46:58.080Z,72.36
2023-04-28T08:49:08.917Z,75.8
2023-04-28T08:51:19.141Z,72.51
2023-04-28T08:53:30.032Z,71.89
2023-04-28T08:55:46.592Z,73.29
2023-04-28T08:57:57.810Z,75.77
2023-04-28T09:00:09.539Z,71.76
2023-04-28T09:02:21.470Z,76.89
2023-04-28T09:04:33.576Z,73.9
2023-04-28T09:06:44.255Z,72.19
2023-04-28T09:08:56.920Z,69.92
2023-04-28T09:11:07.557Z,65.89
2023-04-28T09:13:20.654Z,68.29
2023-04-28T09:15:37.334Z,70.88
2023-04-28T09:17:48.054Z,71.97
2023-04-28T09:19:58.562Z,64.77
2023-04-28T09:22:47.998Z,72.32
2023-04-28T09:24:59.683Z,69.25
2023-04-28T09:27:19.324Z,66.66
2023-04-28T09:29:33.180Z,64.83
2023-04-28T09:31:56.312Z,68.18
2023-04-28T09:34:09.529Z,71.59
2023-04-28T09:36:22.799Z,71.23
2023-04-28T09:38:35.435Z,71.56
2023-04-28T09:40:47.399Z,71.49
2023-04-28T09:43:18.899Z,65.22
2023-04-28T09:45:35.490Z,65.23
2023-04-28T09:47:47.047Z,68.03
2023-04-28T09:49:58.110Z,65.33
2023-04-28T09:52:09.061Z,67.76
2023-04-28T09:54:27.906Z,66.28
2023-04-28T09:56:39.610Z,66.61
2023-04-28T09:58:49.792Z,64.76
2023-04-28T10:01:01.920Z,65.47
2023-04-28T10:03:14.268Z,65.33
2023-04-28T10:05:26.572Z,62.51
2023-04-28T10:07:37.265Z,65.99
2023-04-28T10:09:48.726Z,65.26
2023-04-28T10:12:00.134Z,64.49
2023-04-28T10:14:12.257Z,68.73
2023-04-28T10:16:22.725Z,64.47
2023-04-28T10:18:38.017Z,64.91
2023-04-28T10:20:48.554Z,68.67
2023-04-28T10:22:59.859Z,69.57
2023-04-28T10:25:12.793Z,65.33
2023-04-28T10:27:24.099Z,66.51
2023-04-28T10:29:34.939Z,68.58
2023-04-28T10:31:46.572Z,70.37
2023-04-28T10:33:57.521Z,69.67
2023-04-28T10:36:07.405Z,70.18
2023-04-28T10:38:18.154Z,69.61
2023-04-28T10:40:29.214Z,65.37
2023-04-28T10:42:40.723Z,69.08
2023-04-28T10:44:50.604Z,66.68
2023-04-28T10:47:11.094Z,66.26
2023-04-28T10:49:26.364Z,66.25
2023-04-28T10:51:37.751Z,65.65
2023-04-28T10:53:49.303Z,66.59
2023-04-28T10:55:58.952Z,66.45
2023-04-28T10:58:09.010Z,63.25
2023-04-28T11:00:20.229Z,66.34
2023-04-28T11:02:31.249Z,68.36
2023-04-28T11:04:44.092Z,63.79
2023-04-28T11:06:57.673Z,66.12
2023-04-28T11:09:09.399Z,65.65
2023-04-28T11:11:20.525Z,61.87
2023-04-28T11:13:33.508Z,63.74
2023-04-28T11:15:45.284Z,65.97
2023-04-28T11:17:56.233Z,64.97
2023-04-28T11:20:09.570Z,63.08
2023-04-28T11:22:19.102Z,67.08
2023-04-28T11:24:29.266Z,63.5
2023-04-28T11:26:41.918Z,63.54
2023-04-28T11:28:52.640Z,60.07
2023-04-28T11:31:05.450Z,57.85
2023-04-28T11:33:27.380Z,59.26
2023-04-28T11:35:47.566Z,56.49
2023-04-28T11:38:01.339Z,62.16
2023-04-28T11:40:16.817Z,63.88
2023-04-28T11:42:36.098Z,63.25
2023-04-28T11:44:47.257Z,64.26
2023-04-28T11:46:58.065Z,64.49
2023-04-28T11:49:09.258Z,63.2
2023-04-28T11:51:19.905Z,60.61
2023-04-28T11:56:26.362Z,64.2
2023-04-28T11:58:47.221Z,64.86
2023-04-28T12:01:02.848Z,63.41
2023-04-28T12:03:28.723Z,61.84
2023-04-28T12:05:48.944Z,61.66
2023-04-28T12:07:58.958Z,63.6
2023-04-28T12:10:12.809Z,64.57
2023-04-28T12:12:55.960Z,64.5
2023-04-28T12:15:18.793Z,61.88
2023-04-28T12:17:32.414Z,63.31
2023-04-28T12:19:48.960Z,61.94
2023-04-28T12:22:14.094Z,65.54
2023-04-28T12:24:26.398Z,61.55
2023-04-28T12:26:37.095Z,63.06
2023-04-28T12:28:50.350Z,62.14
2023-04-28T12:31:00.188Z,67.43
2023-04-28T12:33:10.344Z,68.11
2023-04-28T12:35:21.622Z,65.51
2023-04-28T12:37:31.290Z,61.22
2023-04-28T12:39:44.566Z,62.36
2023-04-28T12:41:58.661Z,63.9
2023-04-28T12:44:09.743Z,59.1
2023-04-28T12:46:25.836Z,58.67
2023-04-28T12:48:41.471Z,56.79
2023-04-28T12:50:56.305Z,57.93
2023-04-28T12:53:11.167Z,56.72
2023-04-28T12:55:24.463Z,58.43
2023-04-28T12:57:38.251Z,57.75
2023-04-28T12:59:50.417Z,57.63
2023-04-28T13:02:03.664Z,58.45
2023-04-28T13:04:16.199Z,57.18
2023-04-28T13:06:32.597Z,60.2
2023-04-28T13:08:56.483Z,60.47
2023-04-28T13:11:49.088Z,60.56
2023-04-28T13:14:22.287Z,57.38
2023-04-28T13:16:41.839Z,57.58
2023-04-28T13:22:14.273Z,58.47
2023-04-28T13:24:36.700Z,58.29
2023-04-28T13:27:02.481Z,58.38
2023-04-28T13:29:43.139Z,55.01
2023-04-28T13:32:29.455Z,59.34
2023-04-28T13:35:19.327Z,58.86
2023-04-28T13:40:59.524Z,59.67
2023-04-28T13:43:26.734Z,58.59
2023-04-28T13:45:48.781Z,59.86
2023-04-28T13:48:16.339Z,59.2
2023-04-28T13:50:44.420Z,60.77
2023-04-28T13:53:02.272Z,61.21
2023-04-28T13:55:19.737Z,61.03
2023-04-28T13:57:39.197Z,58.81
2023-04-28T14:00:08.231Z,59.06
2023-04-28T14:02:41.874Z,59.3
2023-04-28T14:05:09.051Z,58.83
2023-04-28T14:07:26.349Z,59.88
2023-04-28T14:09:38.546Z,59.03
2023-04-28T14:12:09.150Z,61.27
2023-04-28T14:14:21.789Z,59.77
2023-04-28T14:16:38.086Z,60.67
2023-04-28T14:19:03.825Z,60.32
2023-04-28T14:21:20.328Z,59.9
2023-04-28T14:23:33.248Z,61.76
2023-04-28T14:25:51.505Z,61.66
2023-04-28T14:28:15.730Z,59.28
2023-04-28T14:30:33.114Z,60.83
2023-04-28T14:33:01.631Z,61.12
2023-04-28T14:35:17.033Z,59.87
2023-04-28T14:37:39.637Z,60.84
2023-04-28T14:40:03.034Z,62.61
2023-04-28T14:42:24.354Z,62.75
2023-04-28T14:44:38.173Z,62.84
2023-04-28T14:50:07.178Z,60.63
2023-04-28T14:52:18.946Z,60.25
2023-04-28T14:54:37.397Z,61.06
2023-04-28T14:56:49.976Z,61.45
2023-04-28T14:59:00.941Z,63.47
2023-04-28T15:01:16.805Z,62.09
2023-04-28T15:03:34.598Z,63.78
2023-04-28T15:05:52.095Z,60.39
2023-04-28T15:08:08.789Z,61.66
2023-04-28T15:10:22.410Z,62.42
2023-04-28T15:12:34.511Z,62.58
2023-04-28T15:14:47.775Z,63.54
2023-04-28T15:17:08.169Z,63.13
2023-04-28T15:19:21.091Z,63.8
2023-04-28T15:21:36.751Z,62.54
2023-04-28T15:23:50.537Z,62.57
2023-04-28T15:26:02.470Z,63.81
2023-04-28T15:28:14.899Z,63.46
2023-04-28T15:30:33.016Z,63.93
2023-04-28T15:32:48.666Z,62.87
2023-04-28T15:35:00.553Z,63.3
2023-04-28T15:37:17.524Z,64.07
2023-04-28T15:39:28.459Z,63.79
2023-04-28T15:41:39.359Z,66.39
2023-04-28T15:43:51.011Z,63.96
2023-04-28T15:46:01.808Z,65.92
2023-04-28T15:48:13.041Z,66.1
2023-04-28T15:50:26.537Z,65.69
2023-04-28T15:52:45.048Z,66.99
2023-04-28T15:54:57.172Z,65.24
2023-04-28T15:57:08.885Z,63.94
2023-04-28T15:59:21.118Z,63.5
2023-04-28T16:01:32.675Z,64.59
2023-04-28T16:04:03.000Z,66.08
2023-04-28T16:06:17.418Z,66.78
2023-04-28T16:08:32.676Z,68.06
2023-04-28T16:10:50.096Z,66.95
2023-04-28T16:13:04.220Z,68.63
2023-04-28T16:15:15.810Z,69.17
2023-04-28T16:17:32.985Z,69.31
2023-04-28T16:19:45.564Z,68.97
2023-04-28T16:21:57.818Z,67.87
2023-04-28T16:24:10.043Z,70.26
2023-04-28T16:26:20.820Z,73.4
2023-04-28T16:31:37.661Z,72.94
2023-04-28T16:33:50.687Z,74.93
2023-04-28T16:36:02.007Z,74.73
2023-04-28T16:38:22.640Z,75.07
2023-04-28T16:40:35.332Z,77.38
2023-04-28T16:42:47.485Z,77.46
2023-04-28T16:45:02.644Z,80.43
2023-04-28T16:47:23.105Z,83.55
2023-04-28T16:49:34.704Z,82.63
2023-04-28T16:51:48.220Z,85.25
2023-04-28T16:54:02.040Z,88.57
2023-04-28T16:56:21.181Z,93.13
2023-04-28T16:58:39.343Z,96.63
2023-04-28T17:01:03.134Z,97.64
2023-04-28T17:03:24.286Z,100
2023-04-28T17:05:44.012Z,100
2023-04-28T17:07:59.155Z,100
2023-04-28T17:10:16.937Z,100
2023-04-28T17:12:33.060Z,100
2023-04-28T17:14:49.334Z,100
2023-04-28T17:17:02.435Z,100
2023-04-28T17:19:15.576Z,100
2023-04-28T17:21:33.622Z,100
2023-04-28T17:23:49.815Z,100
2023-04-28T17:26:07.578Z,100
2023-04-28T17:28:22.008Z,100
2023-04-28T17:30:48.003Z,100
2023-04-28T17:33:05.006Z,100
2023-04-28T17:35:21.435Z,100
2023-04-28T17:37:41.135Z,100
2023-04-28T17:39:55.477Z,100
2023-04-28T17:42:10.744Z,100
2023-04-28T17:44:22.742Z,100
2023-04-28T17:46:36.183Z,100
2023-04-28T17:48:49.842Z,100
2023-04-28T17:51:04.683Z,100
2023-04-28T17:53:17.161Z,100
2023-04-28T17:55:30.678Z,100
2023-04-28T17:57:47.935Z,100
2023-04-28T18:00:16.338Z,100
2023-04-28T18:02:35.037Z,100
2023-04-28T18:04:48.128Z,100
2023-04-28T18:07:04.799Z,100
2023-04-28T18:09:35.986Z,100
2023-04-28T18:11:54.920Z,100
2023-04-28T18:14:08.943Z,100
2023-04-28T18:16:26.922Z,100
2023-04-28T18:18:47.761Z,100
2023-04-28T18:21:03.346Z,100
2023-04-28T18:23:17.792Z,100
2023-04-28T18:25:33.106Z,100
2023-04-28T18:27:48.931Z,100
2023-04-28T18:30:07.919Z,100
2023-04-28T18:32:27.296Z,100
2023-04-28T18:34:39.300Z,100
2023-04-28T18:36:56.899Z,100
2023-04-28T18:39:13.733Z,100
2023-04-28T18:41:43.511Z,100
2023-04-28T18:43:59.155Z,100
2023-04-28T18:46:11.840Z,100
2023-04-28T18:48:27.915Z,100
2023-04-28T18:50:58.514Z,100
2023-04-28T18:53:13.176Z,100
2023-04-28T18:55:36.344Z,100
2023-04-28T18:57:51.061Z,100
2023-04-28T19:00:06.143Z,100
2023-04-28T19:02:33.448Z,100
2023-04-28T19:04:56.874Z,100
2023-04-28T19:07:16.275Z,100
2023-04-28T19:09:31.458Z,100
2023-04-28T19:11:44.960Z,100
2023-04-28T19:13:58.503Z,100
2023-04-28T19:16:17.193Z,100
2023-04-28T19:18:32.962Z,100
2023-04-28T19:20:48.347Z,100
2023-04-28T19:23:05.497Z,100
2023-04-28T19:25:29.482Z,100
2023-04-28T19:27:44.239Z,100
2023-04-28T19:30:01.541Z,100
2023-04-28T19:32:19.276Z,100
2023-04-28T19:34:34.258Z,100
2023-04-28T19:37:02.339Z,100
2023-04-28T19:39:15.962Z,100
2023-04-28T19:41:31.728Z,100
2023-04-28T19:43:49.261Z,100
2023-04-28T19:46:03.454Z,100
2023-04-28T19:48:19.351Z,100
2023-04-28T19:50:38.578Z,100
2023-04-28T19:52:59.497Z,100
2023-04-28T19:55:15.359Z,100
2023-04-28T19:57:28.996Z,100
2023-04-28T19:59:43.867Z,100
2023-04-28T20:02:03.309Z,100
2023-04-28T20:04:19.590Z,100
2023-04-28T20:06:34.679Z,100
2023-04-28T20:09:23.580Z,100
2023-04-28T20:11:40.865Z,100
2023-04-28T20:13:53.645Z,100
2023-04-28T20:16:16.609Z,100
2023-04-28T20:18:51.350Z,100
2023-04-28T20:21:05.719Z,100
2023-04-28T20:23:26.717Z,100
2023-04-28T20:25:44.598Z,100
2023-04-28T20:28:00.967Z,100
2023-04-28T20:30:20.643Z,100
2023-04-28T20:32:37.053Z,100
2023-04-28T20:34:50.339Z,100
2023-04-28T20:37:04.819Z,100
2023-04-28T20:39:23.160Z,100
2023-04-28T20:41:37.655Z,100
2023-04-28T20:43:53.855Z,100
2023-04-28T20:46:08.944Z,100
2023-04-28T20:48:23.703Z,100
2023-04-28T20:50:37.320Z,100
2023-04-28T20:52:50.462Z,100
2023-04-28T20:55:04.967Z,100
2023-04-28T20:57:21.599Z,100
2023-04-28T20:59:36.248Z,100
2023-04-28T21:01:47.297Z,100
2023-04-28T21:03:59.979Z,100
2023-04-28T21:06:11.388Z,100
2023-04-28T21:08:29.926Z,100
2023-04-28T21:10:41.600Z,100
2023-04-28T21:12:52.864Z,100
2023-04-28T21:15:12.708Z,100
2023-04-28T21:17:24.939Z,100
2023-04-28T21:19:38.867Z,100
2023-04-28T21:21:50.540Z,100
2023-04-28T21:24:04.607Z,100
2023-04-28T21:26:18.361Z,100
2023-04-28T21:28:36.918Z,100
2023-04-28T21:30:47.645Z,100
2023-04-28T21:32:59.803Z,100
2023-04-28T21:35:12.330Z,100
2023-04-28T21:37:23.243Z,100
2023-04-28T21:39:34.609Z,100
2023-04-28T21:41:47.542Z,100
2023-04-28T21:44:00.965Z,100
2023-04-28T21:46:13.381Z,100
2023-04-28T21:48:31.263Z,100
2023-04-28T21:50:45.290Z,100
2023-04-28T21:52:56.726Z,100
2023-04-28T21:55:08.702Z,100
2023-04-28T21:57:28.877Z,100
2023-04-28T21:59:41.180Z,100
2023-04-28T22:01:52.975Z,100
2023-04-28T22:04:06.629Z,100
2023-04-28T22:06:17.446Z,100
2023-04-28T22:08:29.745Z,100
2023-04-28T22:10:41.885Z,100
2023-04-28T22:12:54.636Z,100
2023-04-28T22:15:05.767Z,100
2023-04-28T22:17:16.862Z,100
2023-04-28T22:19:27.860Z,100
2023-04-28T22:21:38.281Z,100
2023-04-28T22:23:55.663Z,100
2023-04-28T22:26:06.567Z,100
2023-04-28T22:28:19.007Z,100
2023-04-28T22:30:32.327Z,100
2023-04-28T22:32:44.384Z,100
2023-04-28T22:34:55.552Z,100
2023-04-28T22:37:10.364Z,100
2023-04-28T22:39:24.304Z,100
2023-04-28T22:41:46.106Z,100
2023-04-28T22:43:57.666Z,100
2023-04-28T22:46:10.499Z,100
2023-04-28T22:48:24.904Z,100
2023-04-28T22:50:35.005Z,100
2023-04-28T22:52:48.153Z,100
2023-04-28T22:55:00.192Z,100
2023-04-28T22:57:14.299Z,100
2023-04-28T22:59:25.130Z,100
2023-04-28T23:01:36.689Z,100
2023-04-28T23:03:48.735Z,100
2023-04-28T23:05:59.761Z,100
2023-04-28T23:08:16.864Z,100
2023-04-28T23:10:27.437Z,100
2023-04-28T23:12:43.603Z,100
2023-04-28T23:14:56.078Z,100
2023-04-28T23:17:08.122Z,100
2023-04-28T23:19:21.317Z,100
2023-04-28T23:21:32.145Z,100
2023-04-28T23:23:42.877Z,100
2023-04-28T23:25:53.357Z,100
2023-04-28T23:28:03.819Z,100
2023-04-28T23:30:14.662Z,100
2023-04-28T23:32:26.453Z,100
2023-04-28T23:34:37.183Z,100
2023-04-28T23:36:58.721Z,100
2023-04-28T23:39:08.977Z,100
2023-04-28T23:41:19.818Z,100
2023-04-28T23:43:33.321Z,100
2023-04-28T23:45:45.056Z,100
2023-04-28T23:47:57.260Z,100
2023-04-28T23:50:09.517Z,100
2023-04-28T23:52:22.924Z,100
2023-04-28T23:54:34.625Z,100
2023-04-28T23:56:46.348Z,100
2023-04-28T23:58:56.418Z,100
